Terminal Aerodrome Forecast
Issued by NWS Sioux Falls, SD

Home | Current Version | Previous Version | Graphics & Text | Print | Product List | Glossary On
Versions: 1 2 3 4 5 6 7 8 9 10 11 12 13 14 15 16 17 18 19 20 21 22 23 24 25 26 27 28 29 30
000
FTUS43 KFSD 141125
TAFSUX
TAF
KSUX 141125Z 1412/1512 15005KT P6SM SKC
     FM141900 19005KT P6SM SCT100 BKN250
     FM150300 09004KT P6SM BKN050
      TEMPO 1503/1507 6SM -RA BKN030
     FM150700 02005KT 5SM -RA BR OVC030
     FM151100 36008KT P6SM BKN030=

USA.gov is the U.S. government's official web portal to all federal, state and local government web resources and services.